Time;durP1;ratioP1;P1;durP2;ratioP2;P2;SDS_P1;SDS_P2;PMS_P1;PMS_P2;Temp;Humidity;BMP_temperature;BMP_pressure;BME280_temperature;BME280_humidity;BME280_pressure;Samples;Min_cycle;Max_cycle;Signal;HPM_P1;HPM_P2
2022/01/26 11:45:04;;;;;;;120.93;43.63;;;;;;;;;;5120439;27;1271462;-69
2022/01/26 11:45:38;;;;;;;124.80;46.00;;;;;;;;;;5131016;27;20495;-69
2022/01/26 11:48:07;;;;;;;134.10;46.55;;;;;;;;;;5125699;28;20051;-69
2022/01/26 11:50:34;;;;;;;140.30;49.53;;;;;;;;;;5140325;27;20039;-70
2022/01/26 11:53:00;;;;;;;;;;;;;;;;;;5136313;27;20099;-70
2022/01/26 11:55:31;;;;;;;124.25;48.20;;;;;;;;;;5138373;27;20290;-70
2022/01/26 11:58:08;;;;;;;120.88;48.10;;;;;;;;;;5126543;27;20123;-74
2022/01/26 12:00:41;;;;;;;126.03;47.70;;;;;;;;;;5126715;28;20071;-68
2022/01/26 12:03:18;;;;;;;117.63;43.53;;;;;;;;;;5125311;27;20039;-69
2022/01/26 12:05:49;;;;;;;;;;;;;;;;;;5108985;27;20048;-70
2022/01/26 12:08:15;;;;;;;116.93;43.78;;;;;;;;;;5125866;27;19926;-71
2022/01/26 12:10:44;;;;;;;119.30;44.20;;;;;;;;;;5109899;28;20062;-69
2022/01/26 12:13:12;;;;;;;111.03;42.45;;;;;;;;;;5127324;27;20063;-71
2022/01/26 12:15:52;;;;;;;128.15;44.25;;;;;;;;;;5102033;28;20044;-72
2022/01/26 12:35:16;;;;;;;128.98;46.70;;;;;;;;;;5119725;27;20219;-70
2022/01/26 12:43:33;;;;;;;115.53;41.38;;;;;;;;;;5109201;27;20116;-70
2022/01/26 12:45:59;;;;;;;115.18;41.17;;;;;;;;;;5098446;28;20047;-72
2022/01/26 12:48:25;;;;;;;112.63;41.92;;;;;;;;;;5112399;27;20364;-70
2022/01/26 12:50:52;;;;;;;120.97;42.50;;;;;;;;;;5121452;27;20391;-73
2022/01/26 12:53:28;;;;;;;112.35;43.22;;;;;;;;;;5116334;27;20058;-71
2022/01/26 12:55:56;;;;;;;121.55;44.60;;;;;;;;;;5080898;28;20064;-69
2022/01/26 12:58:26;;;;;;;99.97;39.60;;;;;;;;;;5111118;27;20118;-70
2022/01/26 13:00:53;;;;;;;112.13;42.53;;;;;;;;;;5112045;27;20039;-70
2022/01/26 13:03:23;;;;;;;;;;;;;;;;;;5107816;27;20046;-71
2022/01/26 13:05:49;;;;;;;111.35;41.63;;;;;;;;;;5108502;27;19919;-69
2022/01/26 13:08:15;;;;;;;110.13;41.25;;;;;;;;;;5113003;27;20059;-71
2022/01/26 13:10:41;;;;;;;126.30;43.30;;;;;;;;;;5090616;27;20051;-72
2022/01/26 13:13:11;;;;;;;106.65;41.38;;;;;;;;;;5112492;27;20039;-71
2022/01/26 13:15:53;;;;;;;121.45;42.25;;;;;;;;;;5121850;27;20039;-71
2022/01/26 13:18:34;;;;;;;108.85;40.47;;;;;;;;;;5105427;27;20177;-72
2022/01/26 13:21:28;;;;;;;107.00;41.22;;;;;;;;;;5119992;27;20158;-71
2022/01/26 13:24:09;;;;;;;111.47;40.13;;;;;;;;;;5098099;27;20075;-71
2022/01/26 13:26:53;;;;;;;109.22;43.85;;;;;;;;;;5094878;28;20054;-70
2022/01/26 13:29:54;;;;;;;104.55;40.92;;;;;;;;;;5111705;27;20055;-70
2022/01/26 13:38:05;;;;;;;105.03;41.53;;;;;;;;;;5111241;27;20044;-70
2022/01/26 13:51:14;;;;;;;105.50;38.60;;;;;;;;;;5116154;27;20052;-71
2022/01/26 13:53:50;;;;;;;94.35;38.47;;;;;;;;;;5095065;28;20055;-72
2022/01/26 13:56:32;;;;;;;86.15;36.03;;;;;;;;;;5112310;28;20511;-71
2022/01/26 13:59:08;;;;;;;92.32;36.88;;;;;;;;;;5125206;27;20061;-72
2022/01/26 14:01:36;;;;;;;94.38;35.50;;;;;;;;;;5119940;27;20047;-75
2022/01/26 14:04:05;;;;;;;83.95;33.95;;;;;;;;;;5093109;28;20039;-74
2022/01/26 14:06:31;;;;;;;93.85;33.92;;;;;;;;;;5094371;28;20116;-72
2022/01/26 14:08:57;;;;;;;80.47;34.17;;;;;;;;;;5120501;27;20103;-71
2022/01/26 14:11:23;;;;;;;92.95;33.75;;;;;;;;;;5128537;27;20046;-70
2022/01/26 14:13:53;;;;;;;83.90;32.47;;;;;;;;;;5100262;28;20047;-70
2022/01/26 14:16:21;;;;;;;76.20;32.42;;;;;;;;;;5113070;28;20048;-72
2022/01/26 14:26:43;;;;;;;75.32;32.50;;;;;;;;;;5111948;28;20070;-74
2022/01/26 14:29:19;;;;;;;81.40;34.88;;;;;;;;;;5130303;27;20191;-80
2022/01/26 15:34:34;;;;;;;83.82;33.28;;;;;;;;;;5124385;27;20478;-69
2022/01/26 15:50:22;;;;;;;77.80;33.40;;;;;;;;;;5121731;28;20051;-68
2022/01/26 16:04:39;;;;;;;86.32;33.40;;;;;;;;;;5079742;28;20066;-70
2022/01/26 16:20:37;;;;;;;79.50;34.17;;;;;;;;;;5111234;28;20051;-68
2022/01/26 16:37:41;;;;;;;76.63;31.65;;;;;;;;;;5100723;28;20048;-69
2022/01/26 18:33:22;;;;;;;63.00;27.08;;;;;;;;;;5104846;28;20044;-73
2022/01/26 18:46:53;;;;;;;55.75;24.70;;;;;;;;;;5074444;28;20107;-82
2022/01/26 18:49:21;;;;;;;57.15;24.05;;;;;;;;;;5092713;28;20067;-69
2022/01/26 18:51:49;;;;;;;57.92;24.77;;;;;;;;;;5094909;27;20115;-68
2022/01/26 18:54:16;;;;;;;57.33;25.90;;;;;;;;;;5112907;28;20044;-67
2022/01/26 18:56:42;;;;;;;58.17;24.35;;;;;;;;;;5112523;28;20050;-69
2022/01/26 18:59:10;;;;;;;54.30;24.20;;;;;;;;;;5113075;28;20051;-69
2022/01/26 19:01:36;;;;;;;54.78;25.30;;;;;;;;;;5112284;28;20464;-71
2022/01/26 19:04:02;;;;;;;;;;;;;;;;;;5110491;27;20420;-74
2022/01/26 19:06:28;;;;;;;58.80;24.48;;;;;;;;;;5094879;28;19920;-77
2022/01/26 19:08:54;;;;;;;53.75;22.17;;;;;;;;;;5092879;28;20044;-68
2022/01/26 19:11:22;;;;;;;50.28;22.90;;;;;;;;;;5092807;28;20085;-72
2022/01/26 19:13:49;;;;;;;48.47;23.45;;;;;;;;;;5111068;28;20058;-76
2022/01/26 19:16:32;;;;;;;47.00;20.85;;;;;;;;;;5095187;28;20082;-71
2022/01/26 19:21:48;;;;;;;51.80;23.00;;;;;;;;;;5110889;28;20051;-70
2022/01/26 19:26:52;;;;;;;54.58;23.48;;;;;;;;;;5110775;28;20051;-73
2022/01/26 19:53:09;;;;;;;50.97;23.55;;;;;;;;;;5110591;28;20055;-80
2022/01/26 19:55:36;;;;;;;51.80;23.55;;;;;;;;;;5105456;28;20047;-77
2022/01/26 19:58:09;;;;;;;50.97;23.92;;;;;;;;;;5112097;28;20074;-67
2022/01/26 20:00:43;;;;;;;60.00;24.90;;;;;;;;;;5111863;28;20483;-67
2022/01/26 20:03:09;;;;;;;52.83;24.98;;;;;;;;;;5114301;28;20051;-69
2022/01/26 20:05:35;;;;;;;58.88;23.83;;;;;;;;;;5114353;27;20123;-71
2022/01/26 20:08:09;;;;;;;55.80;26.00;;;;;;;;;;5116323;28;20180;-76
2022/01/26 20:10:41;;;;;;;53.15;26.40;;;;;;;;;;5116160;28;20067;-69
2022/01/26 20:13:18;;;;;;;55.30;26.88;;;;;;;;;;5116332;28;20053;-69
2022/01/26 20:15:44;;;;;;;53.55;24.55;;;;;;;;;;5123359;27;20061;-68
2022/01/26 20:18:11;;;;;;;54.80;24.02;;;;;;;;;;5117908;27;20043;-78
2022/01/26 20:20:37;;;;;;;60.05;29.02;;;;;;;;;;5135971;27;20122;-72
2022/01/26 20:23:03;;;;;;;60.35;26.25;;;;;;;;;;5136145;27;20499;-74
2022/01/26 20:25:30;;;;;;;56.80;26.50;;;;;;;;;;5118221;27;20083;-69
2022/01/26 20:28:04;;;;;;;60.55;26.05;;;;;;;;;;5135830;27;20542;-71
2022/01/26 20:30:33;;;;;;;67.00;27.50;;;;;;;;;;5136566;27;20051;-69
2022/01/26 20:32:59;;;;;;;62.88;26.10;;;;;;;;;;5121616;27;20087;-71
2022/01/26 20:35:25;;;;;;;61.10;25.65;;;;;;;;;;5106997;28;20100;-70
2022/01/26 20:37:51;;;;;;;61.00;26.00;;;;;;;;;;5114639;28;20047;-72
2022/01/26 20:40:18;;;;;;;56.08;26.08;;;;;;;;;;5131209;27;20047;-69
2022/01/26 20:42:47;;;;;;;61.75;26.00;;;;;;;;;;5135804;27;20054;-69
2022/01/26 20:45:20;;;;;;;62.00;25.90;;;;;;;;;;5117977;27;20082;-74
2022/01/26 20:47:47;;;;;;;57.42;25.00;;;;;;;;;;5136230;27;20051;-69
2022/01/26 20:50:13;;;;;;;56.15;25.10;;;;;;;;;;5112230;27;20695;-72
2022/01/26 20:52:39;;;;;;;54.78;25.80;;;;;;;;;;5109219;28;20040;-70
2022/01/26 20:55:07;;;;;;;63.63;26.08;;;;;;;;;;5094444;28;20056;-67
2022/01/26 20:57:33;;;;;;;61.78;25.50;;;;;;;;;;5107829;28;20039;-67
2022/01/26 20:59:59;;;;;;;56.33;24.83;;;;;;;;;;5118995;27;20399;-68
2022/01/26 21:02:25;;;;;;;65.22;24.17;;;;;;;;;;5136208;27;20039;-66
2022/01/26 21:04:51;;;;;;;66.55;27.48;;;;;;;;;;5117155;27;20054;-68
2022/01/26 21:07:18;;;;;;;59.25;26.67;;;;;;;;;;5136093;27;20047;-67
2022/01/26 21:09:45;;;;;;;52.38;25.92;;;;;;;;;;5135571;27;20051;-69
2022/01/26 21:12:11;;;;;;;63.22;24.02;;;;;;;;;;5117637;27;20055;-72
2022/01/26 21:14:37;;;;;;;62.88;27.42;;;;;;;;;;5116902;27;20066;-69
2022/01/26 21:17:04;;;;;;;;;;;;;;;;;;5133320;27;20530;-73
2022/01/26 21:19:31;;;;;;;55.38;25.13;;;;;;;;;;5130599;27;20343;-68
2022/01/26 21:21:58;;;;;;;53.15;24.05;;;;;;;;;;5130642;27;20097;-70
2022/01/26 21:24:24;;;;;;;60.60;26.88;;;;;;;;;;5095199;27;20055;-68
2022/01/26 21:26:50;;;;;;;57.60;27.25;;;;;;;;;;5108677;27;20040;-81
2022/01/26 21:29:18;;;;;;;64.07;26.40;;;;;;;;;;5111813;27;20058;-68
2022/01/26 21:31:44;;;;;;;60.13;26.42;;;;;;;;;;5113904;27;20732;-67
2022/01/26 21:34:10;;;;;;;59.58;25.58;;;;;;;;;;5111138;28;20506;-72
2022/01/26 21:36:36;;;;;;;51.28;25.70;;;;;;;;;;5107784;27;20063;-71
2022/01/26 21:39:07;;;;;;;51.47;23.50;;;;;;;;;;5111532;27;20090;-67
2022/01/26 21:41:34;;;;;;;58.97;24.45;;;;;;;;;;5107917;28;20109;-67
2022/01/26 21:44:01;;;;;;;49.95;21.50;;;;;;;;;;5112177;27;20050;-67
2022/01/26 21:46:27;;;;;;;59.22;26.23;;;;;;;;;;5092651;27;20087;-68
2022/01/26 21:48:53;;;;;;;58.78;26.65;;;;;;;;;;5096963;28;20040;-71
2022/01/26 21:51:19;;;;;;;59.60;27.05;;;;;;;;;;5111313;28;20403;-71
2022/01/26 21:53:45;;;;;;;56.30;26.38;;;;;;;;;;5098537;28;20043;-70
2022/01/26 21:56:12;;;;;;;64.07;27.75;;;;;;;;;;5112054;28;20963;-68
2022/01/26 21:58:38;;;;;;;49.80;23.10;;;;;;;;;;5110482;27;20039;-78
2022/01/26 22:01:07;;;;;;;61.53;26.30;;;;;;;;;;5100814;28;20483;-68
2022/01/26 22:03:33;;;;;;;55.42;26.08;;;;;;;;;;5119864;27;20067;-74
2022/01/26 22:05:59;;;;;;;62.25;26.52;;;;;;;;;;5111479;28;20048;-81
2022/01/26 22:08:25;;;;;;;55.60;24.85;;;;;;;;;;5113245;28;20044;-69
2022/01/26 22:10:51;;;;;;;52.30;23.77;;;;;;;;;;5122038;27;20058;-77
2022/01/26 22:13:18;;;;;;;54.38;23.83;;;;;;;;;;5113853;27;20039;-70
2022/01/26 22:15:44;;;;;;;55.72;24.63;;;;;;;;;;5114306;28;20078;-67
2022/01/26 22:18:10;;;;;;;52.42;25.55;;;;;;;;;;5113102;28;20067;-73
2022/01/26 22:20:36;;;;;;;43.97;19.35;;;;;;;;;;5113922;28;20044;-72
2022/01/26 22:23:03;;;;;;;53.15;23.52;;;;;;;;;;5109870;27;20043;-75
2022/01/26 22:25:29;;;;;;;53.70;24.65;;;;;;;;;;5117671;27;20044;-69
2022/01/26 22:27:56;;;;;;;56.83;26.15;;;;;;;;;;5111334;28;20072;-79
2022/01/26 22:30:27;;;;;;;52.65;24.48;;;;;;;;;;5110306;28;20114;-68
2022/01/26 22:32:53;;;;;;;53.05;25.65;;;;;;;;;;5110557;27;20040;-70
2022/01/26 22:35:20;;;;;;;58.08;26.15;;;;;;;;;;5110613;27;20054;-71
2022/01/26 22:37:48;;;;;;;55.97;26.52;;;;;;;;;;5106923;27;20039;-72
2022/01/26 22:40:14;;;;;;;55.75;24.50;;;;;;;;;;5113380;27;20043;-72
2022/01/26 22:42:40;;;;;;;59.40;24.40;;;;;;;;;;5096849;28;20499;-72
2022/01/26 22:45:07;;;;;;;48.28;22.25;;;;;;;;;;5111011;27;20050;-76
2022/01/26 22:47:33;;;;;;;53.92;23.80;;;;;;;;;;5112249;27;20066;-70
2022/01/26 22:49:59;;;;;;;53.97;23.70;;;;;;;;;;5093775;28;20051;-72
2022/01/26 22:52:25;;;;;;;44.50;19.70;;;;;;;;;;5111479;28;20139;-70
2022/01/26 22:54:51;;;;;;;46.60;21.45;;;;;;;;;;5112304;27;20044;-67
2022/01/26 22:57:17;;;;;;;52.67;23.30;;;;;;;;;;5105351;28;20039;-73
2022/01/26 22:59:43;;;;;;;40.35;18.85;;;;;;;;;;5104665;28;20044;-72
2022/01/26 23:04:51;;;;;;;45.75;21.60;;;;;;;;;;5113031;28;20192;-75
2022/01/26 23:07:18;;;;;;;41.10;17.77;;;;;;;;;;5124569;27;20055;-76
2022/01/26 23:09:44;;;;;;;42.92;19.45;;;;;;;;;;5094725;28;20048;-73
2022/01/26 23:12:10;;;;;;;49.63;20.98;;;;;;;;;;5115109;27;20120;-67
2022/01/26 23:14:36;;;;;;;43.75;19.58;;;;;;;;;;5125659;27;20082;-79
2022/01/26 23:17:05;;;;;;;47.17;19.50;;;;;;;;;;5124149;27;20118;-69
2022/01/26 23:19:31;;;;;;;47.03;20.10;;;;;;;;;;5121897;27;20086;-76
2022/01/26 23:21:57;;;;;;;39.83;18.52;;;;;;;;;;5103279;27;20132;-73
2022/01/26 23:24:31;;;;;;;43.67;20.05;;;;;;;;;;5131739;27;20171;-74
2022/01/26 23:27:21;;;;;;;46.83;19.83;;;;;;;;;;5131938;27;20123;-73
2022/01/26 23:29:58;;;;;;;40.13;16.77;;;;;;;;;;5116860;27;20066;-71
2022/01/26 23:33:00;;;;;;;39.03;17.42;;;;;;;;;;5120759;27;20047;-71
2022/01/26 23:35:28;;;;;;;37.88;15.68;;;;;;;;;;5111946;28;20483;-74
2022/01/26 23:38:07;;;;;;;36.03;16.67;;;;;;;;;;5121359;27;20047;-70
